Wilson Clyde — 8PRV — position and weather

sailwx.info

Track history (hours):
 
Tides and Currents Weather Stations Pressure Air Temp Water Temp Dewpoint Dewpoint Depression Visibility Wind Speed Wind Dir Waves Ship Positions

Wilson Clyde

Last reported at 2017-Mar-29 03:23 UTC. Time now 2017-Mar-29 18:54 UTC.
Position N 66°48' E 013°51'.

Length 100 m; draft 6 m.

Type: Cargo ship. MMSI: 314187000.

Date/timePositionNaut miles runAvg speedWind from/ knotsBaromVisibWave heightAir tempDewpointWater temp
2017-Mar-29 03:23N 66°48' E 013°51'910.7
2017-Mar-29 02:33N 66°49' E 013°29'1010.1
2017-Mar-29 01:33N 66°42' E 013°09'1010.0
2017-Mar-29 00:32N 66°33' E 012°60'1010.4
2017-Mar-28 23:33N 66°22' E 012°58'1110.4
2017-Mar-28 22:32N 66°16' E 012°38'8 8.4
2017-Mar-28 21:33N 66°17' E 012°18'10 9.6
2017-Mar-28 20:33N 66°15' E 011°55'  
2017-Mar-26 01:29N 59°14' W 004°18'53 9.9
2017-Mar-25 20:11N 58°31' W 005°18'167 9.9
2017-Mar-25 03:24N 55°53' W 006°56'8 9.9
2017-Mar-25 02:33N 55°46' W 006°47'1110.8
2017-Mar-25 01:33N 55°37' W 006°35'1211.9
2017-Mar-25 00:33N 55°28' W 006°23'1211.9
2017-Mar-24 23:33N 55°24' W 006°03'1312.8
2017-Mar-24 22:33N 55°14' W 005°50'1211.7
2017-Mar-24 21:33N 55°05' W 005°38'1110.7
2017-Mar-24 20:33N 54°56' W 005°27'10 9.8
2017-Mar-24 19:33N 54°47' W 005°18'10 9.7
2017-Mar-24 18:34N 54°38' W 005°15'1010.0
2017-Mar-24 17:34N 54°28' W 005°12'1010.4
2017-Mar-24 16:33N 54°18' W 005°13'1110.6
2017-Mar-24 15:33N 54°07' W 005°15'1110.7
2017-Mar-24 14:33N 53°57' W 005°18'193 8.6
2017-Mar-23 16:14N 50°45' W 005°52'6 8.1
2017-Mar-23 15:31N 50°39' W 005°53'12 8.0
2017-Mar-23 14:04N 50°27' W 005°53'5 8.2
2017-Mar-23 13:31N 50°23' W 005°54'  
2017-Mar-20 12:32N 39°52' W 009°49'34 8.5
2017-Mar-20 08:30N 39°17' W 009°50'8 8.7
2017-Mar-20 07:33N 39°09' W 009°50'8 8.0
2017-Mar-20 06:33N 39°01' W 009°49'8 8.1
2017-Mar-20 05:34N 38°53' W 009°50'8 8.4
2017-Mar-20 04:34N 38°45' W 009°50'8 8.2
2017-Mar-20 03:34N 38°37' W 009°48'8 8.3
2017-Mar-20 02:33N 38°28' W 009°46'8 7.8
2017-Mar-20 01:32N 38°21' W 009°44'23 7.6
2017-Mar-19 22:33N 37°59' W 009°38'8 7.4
2017-Mar-19 21:29N 37°51' W 009°36'7 7.4
2017-Mar-19 20:32N 37°44' W 009°33'8 7.8
2017-Mar-19 19:33N 37°37' W 009°31'8 8.2
2017-Mar-19 18:33N 37°29' W 009°29'8 8.4
2017-Mar-19 17:33N 37°21' W 009°26'9 8.6
2017-Mar-19 16:33N 37°12' W 009°24'9 8.9
2017-Mar-19 15:33N 37°03' W 009°22'9 9.2
2017-Mar-19 14:33N 36°54' W 009°19'10 9.8
2017-Mar-19 13:33N 36°47' W 009°11'10 9.5
2017-Mar-19 12:33N 36°43' W 009°00'10 9.8
2017-Mar-19 11:33N 36°34' W 008°56'  
Track history (hours):
 
Tides and Currents Weather Stations Pressure Air Temp Water Temp Dewpoint Dewpoint Depression Visibility Wind Speed Wind Dir Waves Ship Positions

Wilson Clyde

Last reported at 2017-Mar-29 03:23 UTC. Time now 2017-Mar-29 18:54 UTC.
Position N 66°48' E 013°51'.

Length 100 m; draft 6 m.

Type: Cargo ship. MMSI: 314187000.

Date/timePositionNaut miles runAvg speedWind from/ knotsBaromVisibWave heightAir tempDewpointWater temp
2017-Mar-29 03:23N 66°48' E 013°51'910.7
2017-Mar-29 02:33N 66°49' E 013°29'1010.1
2017-Mar-29 01:33N 66°42' E 013°09'1010.0
2017-Mar-29 00:32N 66°33' E 012°60'1010.4
2017-Mar-28 23:33N 66°22' E 012°58'1110.4
2017-Mar-28 22:32N 66°16' E 012°38'8 8.4
2017-Mar-28 21:33N 66°17' E 012°18'10 9.6
2017-Mar-28 20:33N 66°15' E 011°55'  
2017-Mar-26 01:29N 59°14' W 004°18'53 9.9
2017-Mar-25 20:11N 58°31' W 005°18'167 9.9
2017-Mar-25 03:24N 55°53' W 006°56'8 9.9
2017-Mar-25 02:33N 55°46' W 006°47'1110.8
2017-Mar-25 01:33N 55°37' W 006°35'1211.9
2017-Mar-25 00:33N 55°28' W 006°23'1211.9
2017-Mar-24 23:33N 55°24' W 006°03'1312.8
2017-Mar-24 22:33N 55°14' W 005°50'1211.7
2017-Mar-24 21:33N 55°05' W 005°38'1110.7
2017-Mar-24 20:33N 54°56' W 005°27'10 9.8
2017-Mar-24 19:33N 54°47' W 005°18'10 9.7
2017-Mar-24 18:34N 54°38' W 005°15'1010.0
2017-Mar-24 17:34N 54°28' W 005°12'1010.4
2017-Mar-24 16:33N 54°18' W 005°13'1110.6
2017-Mar-24 15:33N 54°07' W 005°15'1110.7
2017-Mar-24 14:33N 53°57' W 005°18'193 8.6
2017-Mar-23 16:14N 50°45' W 005°52'6 8.1
2017-Mar-23 15:31N 50°39' W 005°53'12 8.0
2017-Mar-23 14:04N 50°27' W 005°53'5 8.2
2017-Mar-23 13:31N 50°23' W 005°54'  
2017-Mar-20 12:32N 39°52' W 009°49'34 8.5
2017-Mar-20 08:30N 39°17' W 009°50'8 8.7
2017-Mar-20 07:33N 39°09' W 009°50'8 8.0
2017-Mar-20 06:33N 39°01' W 009°49'8 8.1
2017-Mar-20 05:34N 38°53' W 009°50'8 8.4
2017-Mar-20 04:34N 38°45' W 009°50'8 8.2
2017-Mar-20 03:34N 38°37' W 009°48'8 8.3
2017-Mar-20 02:33N 38°28' W 009°46'8 7.8
2017-Mar-20 01:32N 38°21' W 009°44'23 7.6
2017-Mar-19 22:33N 37°59' W 009°38'8 7.4
2017-Mar-19 21:29N 37°51' W 009°36'7 7.4
2017-Mar-19 20:32N 37°44' W 009°33'8 7.8
2017-Mar-19 19:33N 37°37' W 009°31'8 8.2
2017-Mar-19 18:33N 37°29' W 009°29'8 8.4
2017-Mar-19 17:33N 37°21' W 009°26'9 8.6
2017-Mar-19 16:33N 37°12' W 009°24'9 8.9
2017-Mar-19 15:33N 37°03' W 009°22'9 9.2
2017-Mar-19 14:33N 36°54' W 009°19'10 9.8
2017-Mar-19 13:33N 36°47' W 009°11'10 9.5
2017-Mar-19 12:33N 36°43' W 009°00'10 9.8
2017-Mar-19 11:33N 36°34' W 008°56'  

Dump ship's entire track history